WetterOnline ( https://www.wetteronline.de )

Wetter aktuell Lauenbrück

Aktuelles Wetter: Soltau (76m)

6-stündlich | Neueste Meldungen
Ortszeit Temperatur Wetter
Fr, 23.02. 7:00 4.9° C bewölkt
Fr, 23.02. 1:00 9.1° C Sprühregen
Do, 22.02. 19:00 11.0° C bedeckt
Do, 22.02. 13:00 10.4° C bedeckt
Do, 22.02. 7:00 7.6° C Sprühregen
Do, 22.02. 1:00 6.9° C leichter Regen
Mi, 21.02. 19:00 8.5° C bedeckt
Mi, 21.02. 13:00 9.4° C bewölkt
Ortszeit Temperatur Wetter
Fr, 23.02. 8:00 5.1° C leicht bewölkt
Fr, 23.02. 7:50 5.1° C leicht bewölkt
Fr, 23.02. 7:40 5.1° C leicht bewölkt
Fr, 23.02. 7:30 5.1° C leicht bewölkt
Fr, 23.02. 7:20 5.1° C leicht bewölkt
Fr, 23.02. 7:10 5.0° C bewölkt
Fr, 23.02. 7:00 4.9° C bewölkt
Fr, 23.02. 6:30 4.5° C bedeckt
Fr, 23.02. 6:00 4.9° C leichter Regen
Fr, 23.02. 5:30 4.7° C bewölkt
Fr, 23.02. 5:00 4.7° C bedeckt
Ortszeit Relative Feuchte Sichtweite
Fr, 23.02. 7:00 81% 55 km
Fr, 23.02. 1:00 67% 50 km
Do, 22.02. 19:00 86% >70 km
Do, 22.02. 13:00 89% 26 km
Do, 22.02. 7:00 99% 4.5 km
Do, 22.02. 1:00 95% 17 km
Mi, 21.02. 19:00 78% 45 km
Mi, 21.02. 13:00 78% 26 km
Ortszeit Relative Feuchte Sichtweite
Fr, 23.02. 8:00 75% 50 km
Fr, 23.02. 7:50 75% -
Fr, 23.02. 7:40 75% -
Fr, 23.02. 7:30 75% 55 km
Fr, 23.02. 7:20 75% -
Fr, 23.02. 7:10 77% -
Fr, 23.02. 7:00 81% 55 km
Fr, 23.02. 6:30 86% 50 km
Fr, 23.02. 6:00 81% 19 km
Fr, 23.02. 5:30 83% 65 km
Fr, 23.02. 5:00 83% 55 km
Ortszeit Niederschlagsmenge Niederschlagsart
Fr, 23.02. 7:00 4 l/m2 in 12 Std. Regen
Fr, 23.02. 1:00 2 l/m2 in 6 Std. Regen
Do, 22.02. 19:00 0.7 l/m2 in 12 Std. Regen
Do, 22.02. 13:00 0.7 l/m2 in 6 Std. Sprühregen
Do, 22.02. 7:00 7 l/m2 in 12 Std. Regen
Do, 22.02. 1:00 2 l/m2 in 6 Std. Regen
Mi, 21.02. 19:00 0.7 l/m2 in 12 Std. -
Mi, 21.02. 13:00 0.7 l/m2 in 6 Std. Regen
Ortszeit Niederschlagsmenge Niederschlagsart
Fr, 23.02. 8:00 0.0 l/m2 in 1 Std. -
Fr, 23.02. 7:50 keine Meldung -
Fr, 23.02. 7:40 keine Meldung -
Fr, 23.02. 7:30 0.0 l/m2 in 30 Min -
Fr, 23.02. 7:20 keine Meldung -
Fr, 23.02. 7:10 keine Meldung -
Fr, 23.02. 7:00 0.3 l/m2 in 1 Std. Regen
Fr, 23.02. 6:30 0.3 l/m2 in 30 Min Schneeregen
Fr, 23.02. 6:00 <0.05 l/m2 in 1 Std. Regen
Fr, 23.02. 5:30 <0.05 l/m2 in 30 Min Schneeregen
Fr, 23.02. 5:00 0.2 l/m2 in 1 Std. Regen
Ortszeit Stärke Spitze Richtung
km/h Bft. km/h Grad Sektor
Fr, 23.02. 7:00 17 3 72 220° SW
Fr, 23.02. 1:00 31 5 61 230° SW
Do, 22.02. 19:00 18 3 40 150° SO
Do, 22.02. 13:00 13 3 24 210° SW
Do, 22.02. 7:00 13 3 28 200° S
Do, 22.02. 1:00 13 3 31 180° S
Mi, 21.02. 19:00 14 3 32 170° S
Mi, 21.02. 13:00 18 3 36 230° SW
Ortszeit Stärke Spitze Richtung
km/h Bft. km/h Grad Sektor
Fr, 23.02. 8:00 19 3 41 220° SW
Fr, 23.02. 7:50 19 3 - 220° SW
Fr, 23.02. 7:40 22 4 - 220° SW
Fr, 23.02. 7:30 18 3 40 220° SW
Fr, 23.02. 7:20 18 3 - 220° SW
Fr, 23.02. 7:10 18 3 - 220° SW
Fr, 23.02. 7:00 17 3 44 220° SW
Fr, 23.02. 6:30 22 4 44 230° SW
Fr, 23.02. 6:00 18 3 43 220° SW
Fr, 23.02. 5:30 22 4 43 230° SW
Fr, 23.02. 5:00 25 4 47 230° SW
Ortszeit Untergrenze Bedeckung Gattung
total tief tief mittel hoch
Fr, 23.02. 7:00 840 m 7/8 7/8 - - -
Fr, 23.02. 1:00 1050 m 8/8 7/8 - - -
Do, 22.02. 19:00 690 m 8/8 8/8 - - -
Do, 22.02. 13:00 210 m 8/8 8/8 - - -
Do, 22.02. 7:00 120 m 7/8 7/8 - - -
Do, 22.02. 1:00 630 m 7/8 7/8 - - -
Mi, 21.02. 19:00 3000 m 8/8 8/8 - - -
Mi, 21.02. 13:00 870 m 7/8 7/8 - - -
Ortszeit Bedeckungsgrad in Achtel und Wolkenuntergrenze
Fr, 23.02. 8:00 1(990m) 3(1440m)
Fr, 23.02. 7:50 1(990m) 3(1440m)
Fr, 23.02. 7:40 3
Fr, 23.02. 7:30 4(930m) 4(1500m)
Fr, 23.02. 7:20 4(930m) 4(1500m)
Fr, 23.02. 7:10 7
Fr, 23.02. 7:00 7(840m)
Fr, 23.02. 6:30 4(630m) 8(1500m) 8(2700m)
Fr, 23.02. 6:00 5(690m) 7(840m) 7(1320m)
Fr, 23.02. 5:30 2(510m) 6(840m) 7(1260m)
Fr, 23.02. 5:00 4(510m) 7(1020m) 8(1500m)
Ortszeit Luftdruck NN (hPa) Tendenz (hPa in 3 Std.)
Fr, 23.02. 7:00 990 + 3,0
Fr, 23.02. 1:00 981 + 3,0
Do, 22.02. 19:00 982 - 4,4
Do, 22.02. 13:00 991 - 2,7
Do, 22.02. 7:00 995 - 2,3
Do, 22.02. 1:00 1001 - 3,4
Mi, 21.02. 19:00 1008 - 3,1
Mi, 21.02. 13:00 1015 - 1,9
Ortszeit Luftdruck NN (hPa) Tendenz (hPa in 3 Std.)
Fr, 23.02. 8:00 991 + 2,4
Fr, 23.02. 7:50 991 keine Meldung
Fr, 23.02. 7:40 991 keine Meldung
Fr, 23.02. 7:30 991 + 2,8
Fr, 23.02. 7:20 991 keine Meldung
Fr, 23.02. 7:10 991 keine Meldung
Fr, 23.02. 7:00 990 + 3,0
Fr, 23.02. 6:30 990 + 3,6
Fr, 23.02. 6:00 989 + 4,5
Fr, 23.02. 5:30 989 + 5,8
Fr, 23.02. 5:00 989 + 6,0
Ortszeit Schneehöhe (cm)
Fr, 23.02. 7:00 0
Fr, 23.02. 1:00 0
Do, 22.02. 19:00 0
Do, 22.02. 13:00 0
Do, 22.02. 7:00 0
Do, 22.02. 1:00 0
Mi, 21.02. 19:00 0
Mi, 21.02. 13:00 0
Ortszeit Schneehöhe (cm)
Fr, 23.02. 8:00 0
Fr, 23.02. 7:50 0
Fr, 23.02. 7:40 -
Fr, 23.02. 7:30 0
Fr, 23.02. 7:20 0
Fr, 23.02. 7:10 -
Fr, 23.02. 7:00 0
Fr, 23.02. 6:30 0
Fr, 23.02. 6:00 0
Fr, 23.02. 5:30 0
Fr, 23.02. 5:00 0
Link zu dieser Seite / Seite empfehlen

Das Wetter in ...